createdAt,value
2023-03-12T00:00:13.575Z,100.00
2023-03-12T00:01:13.734Z,100.00
2023-03-12T00:02:13.989Z,100.00
2023-03-12T00:03:12.935Z,100.00
2023-03-12T00:04:12.909Z,100.00
2023-03-12T00:05:12.970Z,100.00
2023-03-12T00:06:13.081Z,100.00
2023-03-12T00:07:13.288Z,100.00
2023-03-12T00:08:13.541Z,100.00
2023-03-12T00:09:13.770Z,100.00
2023-03-12T00:10:14.049Z,100.00
2023-03-12T00:11:13.482Z,100.00
2023-03-12T00:12:14.056Z,100.00
2023-03-12T00:13:13.152Z,100.00
2023-03-12T00:14:13.075Z,100.00
2023-03-12T00:15:13.053Z,100.00
2023-03-12T00:16:13.166Z,100.00
2023-03-12T00:17:13.106Z,100.00
2023-03-12T00:18:13.267Z,100.00
2023-03-12T00:19:13.481Z,100.00
2023-03-12T00:20:13.440Z,100.00
2023-03-12T00:21:13.359Z,100.00
2023-03-12T00:22:13.388Z,100.00
2023-03-12T00:23:13.339Z,100.00
2023-03-12T00:24:13.402Z,100.00
2023-03-12T00:25:13.325Z,100.00
2023-03-12T00:26:13.219Z,100.00
2023-03-12T00:27:13.173Z,100.00
2023-03-12T00:28:13.049Z,100.00
2023-03-12T00:29:13.283Z,100.00
2023-03-12T00:30:13.416Z,100.00
2023-03-12T00:31:13.741Z,100.00
2023-03-12T00:32:14.038Z,100.00
2023-03-12T00:33:13.041Z,100.00
2023-03-12T00:34:13.053Z,100.00
2023-03-12T00:35:13.079Z,99.70
2023-03-12T00:36:13.136Z,100.00
2023-03-12T00:37:13.090Z,100.00
2023-03-12T00:38:13.088Z,99.90
2023-03-12T00:39:13.343Z,99.10
2023-03-12T00:40:13.373Z,98.40
2023-03-12T00:41:13.317Z,100.00
2023-03-12T00:42:13.663Z,99.70
2023-03-12T00:43:13.602Z,97.30
2023-03-12T00:44:13.540Z,99.10
2023-03-12T00:45:13.453Z,100.00
2023-03-12T00:46:13.356Z,98.00
2023-03-12T00:47:13.354Z,100.00
2023-03-12T00:48:13.356Z,99.40
2023-03-12T00:49:13.325Z,99.60
2023-03-12T00:50:13.537Z,100.00
2023-03-12T00:51:14.064Z,99.10
2023-03-12T00:52:13.169Z,100.00
2023-03-12T00:53:13.329Z,99.30
2023-03-12T00:54:14.457Z,98.60
2023-03-12T00:55:13.468Z,98.00
2023-03-12T00:56:13.747Z,98.50
2023-03-12T00:57:14.219Z,99.10
2023-03-12T00:58:13.426Z,99.20
2023-03-12T00:59:13.689Z,98.20
2023-03-12T01:00:13.800Z,98.40
2023-03-12T01:01:13.806Z,97.30
2023-03-12T01:02:13.717Z,97.60
2023-03-12T01:03:13.656Z,95.60
2023-03-12T01:04:13.773Z,96.30
2023-03-12T01:05:13.880Z,95.50
2023-03-12T01:06:13.030Z,95.30
2023-03-12T01:07:13.004Z,95.00
2023-03-12T01:08:13.326Z,95.10
2023-03-12T01:09:13.366Z,95.10
2023-03-12T01:10:13.587Z,95.00
2023-03-12T01:11:13.524Z,94.40
2023-03-12T01:12:13.422Z,92.90
2023-03-12T01:13:13.553Z,93.70
2023-03-12T01:14:13.496Z,92.10
2023-03-12T01:15:13.382Z,92.40
2023-03-12T01:16:13.488Z,91.50
2023-03-12T01:17:13.568Z,92.60
2023-03-12T01:18:13.747Z,91.20
2023-03-12T01:19:13.774Z,91.30
2023-03-12T01:20:14.055Z,89.30
2023-03-12T01:21:13.151Z,91.40
2023-03-12T01:22:13.533Z,90.70
2023-03-12T01:23:13.550Z,90.20
2023-03-12T01:24:13.908Z,89.90
2023-03-12T01:25:12.800Z,90.30
2023-03-12T01:26:14.042Z,95.10
2023-03-12T01:27:13.461Z,90.10
2023-03-12T01:28:13.563Z,90.30
2023-03-12T01:29:13.515Z,90.30
2023-03-12T01:30:13.648Z,90.20
2023-03-12T01:31:18.563Z,90.80
2023-03-12T01:32:13.880Z,90.80
2023-03-12T01:33:13.166Z,91.00
2023-03-12T01:34:13.061Z,91.50
2023-03-12T01:35:13.481Z,90.00
2023-03-12T01:36:14.595Z,91.60
2023-03-12T01:37:13.836Z,92.50
2023-03-12T01:38:13.925Z,90.70
2023-03-12T01:39:13.244Z,91.60
2023-03-12T01:40:13.262Z,91.50
2023-03-12T01:41:13.955Z,90.10
2023-03-12T01:42:34.884Z,90.70
2023-03-12T01:43:13.014Z,91.80
2023-03-12T01:44:13.453Z,93.50
2023-03-12T01:45:13.585Z,89.50
2023-03-12T01:46:13.716Z,90.50
2023-03-12T01:47:14.241Z,90.50
2023-03-12T01:48:13.327Z,89.10
2023-03-12T01:49:13.213Z,87.90
2023-03-12T01:50:13.189Z,87.40
2023-03-12T01:51:13.230Z,89.40
2023-03-12T01:52:13.195Z,87.40
2023-03-12T01:53:13.165Z,86.70
2023-03-12T01:54:51.084Z,89.00
2023-03-12T01:55:13.821Z,88.70
2023-03-12T01:56:13.852Z,88.10
2023-03-12T01:57:14.158Z,88.40
2023-03-12T01:58:13.131Z,88.60
2023-03-12T01:59:13.254Z,88.30
2023-03-12T02:00:13.244Z,88.00
2023-03-12T02:01:13.270Z,87.80
2023-03-12T02:02:13.508Z,88.60
2023-03-12T02:03:13.838Z,89.90
2023-03-12T02:04:13.824Z,87.40
2023-03-12T02:05:12.851Z,88.80
2023-03-12T02:06:14.006Z,88.00
2023-03-12T02:07:13.203Z,89.20
2023-03-12T02:08:13.276Z,88.00
2023-03-12T02:09:13.311Z,91.20
2023-03-12T02:10:13.282Z,89.40
2023-03-12T02:11:13.307Z,88.10
2023-03-12T02:12:13.436Z,87.00
2023-03-12T02:13:13.361Z,85.80
2023-03-12T02:14:13.228Z,89.20
2023-03-12T02:15:13.174Z,85.40
2023-03-12T02:16:13.306Z,85.70
2023-03-12T02:17:13.660Z,86.20
2023-03-12T02:18:13.985Z,87.00
2023-03-12T02:19:13.126Z,85.20
2023-03-12T02:20:13.071Z,83.80
2023-03-12T02:21:13.321Z,86.60
2023-03-12T02:22:13.359Z,85.90
2023-03-12T02:23:13.406Z,85.90
2023-03-12T02:24:13.460Z,86.40
2023-03-12T02:25:18.453Z,85.60
2023-03-12T02:26:13.521Z,84.70
2023-03-12T02:27:13.433Z,83.20
2023-03-12T02:28:13.351Z,84.60
2023-03-12T02:29:13.254Z,86.00
2023-03-12T02:30:13.332Z,86.40
2023-03-12T02:31:13.235Z,85.80
2023-03-12T02:32:13.204Z,86.60
2023-03-12T02:33:13.235Z,86.60
2023-03-12T02:34:13.193Z,87.20
2023-03-12T02:35:13.408Z,86.20
2023-03-12T02:36:13.729Z,85.30
2023-03-12T02:37:13.912Z,85.80
2023-03-12T02:38:12.877Z,87.20
2023-03-12T02:39:13.961Z,90.60
2023-03-12T02:40:13.071Z,88.10
2023-03-12T02:41:13.154Z,87.50
2023-03-12T02:42:13.207Z,93.30
2023-03-12T02:43:13.504Z,89.90
2023-03-12T02:44:13.781Z,91.30
2023-03-12T02:45:13.751Z,91.10
2023-03-12T02:46:14.074Z,89.60
2023-03-12T02:47:13.184Z,89.90
2023-03-12T02:48:13.510Z,88.40
2023-03-12T02:49:13.503Z,90.90
2023-03-12T02:50:13.458Z,90.30
2023-03-12T02:51:13.325Z,88.80
2023-03-12T02:52:13.401Z,88.30
2023-03-12T02:53:13.388Z,88.70
2023-03-12T02:54:14.054Z,89.10
2023-03-12T02:55:12.975Z,89.00
2023-03-12T02:56:13.377Z,88.20
2023-03-12T02:57:13.471Z,89.90
2023-03-12T02:58:13.602Z,90.10
2023-03-12T02:59:13.972Z,90.20
2023-03-12T03:00:13.086Z,88.90
2023-03-12T03:01:13.549Z,89.30
2023-03-12T03:02:13.471Z,88.60
2023-03-12T03:03:18.427Z,88.00
2023-03-12T03:04:13.751Z,88.50
2023-03-12T03:05:13.989Z,88.70
2023-03-12T03:06:13.000Z,88.80
2023-03-12T03:07:12.875Z,88.60
2023-03-12T03:08:14.147Z,90.80
2023-03-12T03:09:13.231Z,90.60
2023-03-12T03:10:13.172Z,89.10
2023-03-12T03:11:13.489Z,89.50
2023-03-12T03:12:13.795Z,92.20
2023-03-12T03:13:14.070Z,95.40
2023-03-12T03:14:13.206Z,97.70
2023-03-12T03:15:13.241Z,94.50
2023-03-12T03:16:13.228Z,97.70
2023-03-12T03:17:13.440Z,97.80
2023-03-12T03:18:13.472Z,98.60
2023-03-12T03:19:13.414Z,94.70
2023-03-12T03:20:13.605Z,92.90
2023-03-12T03:21:13.995Z,96.50
2023-03-12T03:22:13.436Z,97.30
2023-03-12T03:23:13.706Z,95.90
2023-03-12T03:24:13.930Z,97.10
2023-03-12T03:25:12.906Z,94.90
2023-03-12T03:26:12.799Z,96.80
2023-03-12T03:27:13.872Z,95.10
2023-03-12T03:28:14.048Z,95.60
2023-03-12T03:29:13.263Z,96.90
2023-03-12T03:30:13.410Z,96.90
2023-03-12T03:31:13.657Z,98.90
2023-03-12T03:32:13.695Z,100.00
2023-03-12T03:33:13.930Z,97.40
2023-03-12T03:34:13.292Z,97.10
2023-03-12T03:35:13.310Z,96.60
2023-03-12T03:36:13.430Z,98.40
2023-03-12T03:37:13.490Z,95.90
2023-03-12T03:38:13.363Z,96.60
2023-03-12T03:39:13.667Z,97.30
2023-03-12T03:40:13.928Z,97.10
2023-03-12T03:41:13.048Z,97.70
2023-03-12T03:42:12.993Z,98.10
2023-03-12T03:43:12.957Z,97.60
2023-03-12T03:44:13.094Z,96.80
2023-03-12T03:45:13.086Z,98.80
2023-03-12T03:46:13.168Z,95.60
2023-03-12T03:47:13.213Z,97.20
2023-03-12T03:48:13.270Z,96.90
2023-03-12T03:49:13.198Z,95.70
2023-03-12T03:50:13.180Z,95.60
2023-03-12T03:51:13.200Z,96.30
2023-03-12T03:52:13.098Z,96.60
2023-03-12T03:53:13.091Z,97.50
2023-03-12T03:54:13.006Z,96.90
2023-03-12T03:55:12.894Z,98.40
2023-03-12T03:56:12.970Z,97.50
2023-03-12T03:57:13.224Z,97.40
2023-03-12T03:58:13.407Z,95.40
2023-03-12T03:59:13.261Z,96.10
2023-03-12T04:00:13.206Z,96.10
2023-03-12T04:01:13.141Z,94.20
2023-03-12T04:02:13.422Z,93.70
2023-03-12T04:03:13.490Z,94.00
2023-03-12T04:04:13.642Z,93.00
2023-03-12T04:05:13.990Z,92.30
2023-03-12T04:06:13.156Z,95.00
2023-03-12T04:07:13.248Z,91.40
2023-03-12T04:08:13.358Z,91.20
2023-03-12T04:09:13.405Z,91.10
2023-03-12T04:10:13.328Z,91.40
2023-03-12T04:11:13.361Z,91.20
2023-03-12T04:12:13.234Z,89.50
2023-03-12T04:13:13.272Z,91.30
2023-03-12T04:14:13.305Z,91.20
2023-03-12T04:15:13.263Z,90.00
2023-03-12T04:16:13.347Z,91.10
2023-03-12T04:17:13.554Z,93.60
2023-03-12T04:18:13.709Z,92.10
2023-03-12T04:19:13.645Z,91.60
2023-03-12T04:20:13.582Z,89.80
2023-03-12T04:21:13.582Z,89.70
2023-03-12T04:22:13.812Z,90.10
2023-03-12T04:23:13.743Z,92.60
2023-03-12T04:24:13.609Z,94.10
2023-03-12T04:25:13.504Z,94.40
2023-03-12T04:26:13.870Z,92.60
2023-03-12T04:27:18.865Z,92.00
2023-03-12T04:28:14.118Z,91.80
2023-03-12T04:29:13.410Z,90.50
2023-03-12T04:30:13.523Z,92.60
2023-03-12T04:31:13.703Z,91.60
2023-03-12T04:32:14.049Z,93.00
2023-03-12T04:33:13.191Z,93.20
2023-03-12T04:34:14.622Z,93.00
2023-03-12T04:35:13.618Z,92.80
2023-03-12T04:36:13.753Z,93.00
2023-03-12T04:37:13.945Z,92.00
2023-03-12T04:38:12.915Z,92.30
2023-03-12T04:39:13.135Z,93.30
2023-03-12T04:40:13.405Z,92.60
2023-03-12T04:41:13.625Z,91.40
2023-03-12T04:42:13.664Z,93.90
2023-03-12T04:43:14.010Z,92.80
2023-03-12T04:44:13.097Z,92.60
2023-03-12T04:45:12.999Z,92.60
2023-03-12T04:46:13.021Z,91.10
2023-03-12T04:47:13.224Z,89.80
2023-03-12T04:48:13.261Z,89.30
2023-03-12T04:49:13.289Z,90.00
2023-03-12T04:50:13.425Z,89.80
2023-03-12T04:51:13.285Z,90.90
2023-03-12T04:52:14.402Z,90.10
2023-03-12T04:53:13.401Z,89.10
2023-03-12T04:54:13.439Z,90.80
2023-03-12T04:55:13.497Z,88.20
2023-03-12T04:56:13.977Z,90.10
2023-03-12T04:57:13.185Z,90.50
2023-03-12T04:58:13.397Z,91.80
2023-03-12T04:59:13.798Z,91.50
2023-03-12T05:00:13.799Z,90.30
2023-03-12T05:01:13.690Z,89.50
2023-03-12T05:02:13.769Z,91.40
2023-03-12T05:03:13.823Z,90.20
2023-03-12T05:04:14.314Z,90.00
2023-03-12T05:05:13.398Z,89.50
2023-03-12T05:06:13.390Z,91.10
2023-03-12T05:07:13.394Z,92.00
2023-03-12T05:08:13.589Z,89.20
2023-03-12T05:09:14.117Z,89.40
2023-03-12T05:10:13.074Z,88.70
2023-03-12T05:11:13.342Z,90.30
2023-03-12T05:12:13.562Z,89.50
2023-03-12T05:13:13.461Z,90.80
2023-03-12T05:14:13.647Z,89.20
2023-03-12T05:15:14.042Z,90.60
2023-03-12T05:16:13.486Z,91.30
2023-03-12T05:17:13.490Z,92.50
2023-03-12T05:18:13.598Z,89.80
2023-03-12T05:19:13.740Z,90.80
2023-03-12T05:20:13.763Z,90.50
2023-03-12T05:21:13.820Z,90.00
2023-03-12T05:22:14.013Z,91.50
2023-03-12T05:23:13.200Z,91.40
2023-03-12T05:24:13.211Z,93.10
2023-03-12T05:25:13.267Z,92.90
2023-03-12T05:26:13.200Z,92.10
2023-03-12T05:27:13.407Z,92.70
2023-03-12T05:28:13.538Z,93.40
2023-03-12T05:29:13.433Z,91.90
2023-03-12T05:30:13.530Z,93.80
2023-03-12T05:31:13.637Z,92.10
2023-03-12T05:32:13.665Z,92.00
2023-03-12T05:33:13.649Z,92.50
2023-03-12T05:34:13.610Z,94.10
2023-03-12T05:35:13.634Z,92.30
2023-03-12T05:36:13.667Z,92.90
2023-03-12T05:37:13.609Z,92.90
2023-03-12T05:38:13.545Z,93.70
2023-03-12T05:39:13.651Z,92.30
2023-03-12T05:40:13.731Z,94.10
2023-03-12T05:41:13.682Z,94.70
2023-03-12T05:42:13.519Z,94.10
2023-03-12T05:43:13.406Z,94.10
2023-03-12T05:44:13.366Z,93.20
2023-03-12T05:45:13.374Z,95.60
2023-03-12T05:46:13.500Z,96.80
2023-03-12T05:47:13.633Z,94.40
2023-03-12T05:48:14.009Z,94.50
2023-03-12T05:49:13.489Z,95.20
2023-03-12T05:50:13.628Z,93.90
2023-03-12T05:51:14.297Z,95.40
2023-03-12T05:52:13.552Z,95.80
2023-03-12T05:53:14.034Z,94.90
2023-03-12T05:54:13.193Z,94.20
2023-03-12T05:55:13.253Z,93.90
2023-03-12T05:56:13.369Z,93.30
2023-03-12T05:57:13.428Z,95.70
2023-03-12T05:58:13.685Z,95.70
2023-03-12T05:59:13.552Z,93.30
2023-03-12T06:00:13.636Z,95.50
2023-03-12T06:01:13.560Z,93.50
2023-03-12T06:02:13.680Z,93.40
2023-03-12T06:03:13.868Z,96.00
2023-03-12T06:04:12.930Z,94.30
2023-03-12T06:05:12.887Z,94.70
2023-03-12T06:06:12.832Z,95.60
2023-03-12T06:07:13.964Z,96.30
2023-03-12T06:08:12.872Z,97.10
2023-03-12T06:09:14.101Z,96.60
2023-03-12T06:10:13.400Z,96.50
2023-03-12T06:11:13.548Z,96.70
2023-03-12T06:12:13.993Z,97.80
2023-03-12T06:13:12.989Z,98.40
2023-03-12T06:14:13.002Z,99.70
2023-03-12T06:15:12.987Z,99.60
2023-03-12T06:16:13.203Z,100.00
2023-03-12T06:17:13.596Z,100.00
2023-03-12T06:18:13.621Z,100.00
2023-03-12T06:19:13.505Z,100.00
2023-03-12T06:20:13.497Z,100.00
2023-03-12T06:21:13.401Z,100.00
2023-03-12T06:22:13.312Z,100.00
2023-03-12T06:23:13.301Z,100.00
2023-03-12T06:24:13.277Z,100.00
2023-03-12T06:25:13.171Z,100.00
2023-03-12T06:26:13.313Z,100.00
2023-03-12T06:27:13.345Z,100.00
2023-03-12T06:28:13.230Z,100.00
2023-03-12T06:29:13.271Z,100.00
2023-03-12T06:30:13.244Z,100.00
2023-03-12T06:31:13.173Z,100.00
2023-03-12T06:32:13.305Z,100.00
2023-03-12T06:33:13.295Z,100.00
2023-03-12T06:34:13.230Z,100.00
2023-03-12T06:35:13.142Z,100.00
2023-03-12T06:36:13.191Z,100.00
2023-03-12T06:37:13.648Z,100.00
2023-03-12T06:38:14.017Z,100.00
2023-03-12T06:39:12.920Z,100.00
2023-03-12T06:40:13.139Z,100.00
2023-03-12T06:41:13.059Z,100.00
2023-03-12T06:42:12.912Z,100.00
2023-03-12T06:43:13.140Z,100.00
2023-03-12T06:44:13.466Z,100.00
2023-03-12T06:45:13.691Z,100.00
2023-03-12T06:46:13.918Z,100.00
2023-03-12T06:47:12.905Z,100.00
2023-03-12T06:48:13.168Z,100.00
2023-03-12T06:49:13.285Z,100.00
2023-03-12T06:50:13.434Z,100.00
2023-03-12T06:51:13.379Z,100.00
2023-03-12T06:52:13.332Z,100.00
2023-03-12T06:53:13.320Z,100.00
2023-03-12T06:54:13.306Z,100.00
2023-03-12T06:55:13.190Z,100.00
2023-03-12T06:56:13.317Z,100.00
2023-03-12T06:57:13.182Z,100.00
2023-03-12T06:58:13.347Z,100.00
2023-03-12T06:59:13.561Z,100.00
2023-03-12T07:00:13.682Z,100.00
2023-03-12T07:01:13.752Z,100.00
2023-03-12T07:02:13.709Z,100.00
2023-03-12T07:03:13.722Z,100.00
2023-03-12T07:04:13.852Z,100.00
2023-03-12T07:05:13.841Z,100.00
2023-03-12T07:06:13.907Z,100.00
2023-03-12T07:07:13.133Z,100.00
2023-03-12T07:08:13.406Z,100.00
2023-03-12T07:09:13.368Z,100.00
2023-03-12T07:10:13.221Z,100.00
2023-03-12T07:11:13.058Z,100.00
2023-03-12T07:12:13.079Z,100.00
2023-03-12T07:13:13.082Z,100.00
2023-03-12T07:14:13.011Z,100.00
2023-03-12T07:15:12.995Z,100.00
2023-03-12T07:16:13.421Z,100.00
2023-03-12T07:17:13.408Z,100.00
2023-03-12T07:18:13.438Z,100.00
2023-03-12T07:19:13.662Z,100.00
2023-03-12T07:20:13.591Z,100.00
2023-03-12T07:21:13.558Z,100.00
2023-03-12T07:22:13.765Z,100.00
2023-03-12T07:23:13.855Z,100.00
2023-03-12T07:24:14.004Z,100.00
2023-03-12T07:25:13.031Z,100.00
2023-03-12T07:26:13.015Z,100.00
2023-03-12T07:27:13.359Z,100.00
2023-03-12T07:28:13.435Z,100.00
2023-03-12T07:29:13.374Z,100.00
2023-03-12T07:30:13.306Z,100.00
2023-03-12T07:31:13.526Z,100.00
2023-03-12T07:32:13.439Z,100.00
2023-03-12T07:33:13.791Z,100.00
2023-03-12T07:34:14.235Z,100.00
2023-03-12T07:35:13.277Z,100.00
2023-03-12T07:36:13.443Z,100.00
2023-03-12T07:37:13.592Z,100.00
2023-03-12T07:38:13.690Z,100.00
2023-03-12T07:39:14.095Z,100.00
2023-03-12T07:40:13.494Z,100.00
2023-03-12T07:41:13.759Z,100.00
2023-03-12T07:42:13.790Z,100.00
2023-03-12T07:43:13.809Z,100.00
2023-03-12T07:44:14.202Z,100.00
2023-03-12T07:45:13.332Z,100.00
2023-03-12T07:46:13.804Z,100.00
2023-03-12T07:47:23.720Z,100.00
2023-03-12T07:48:13.708Z,100.00
2023-03-12T07:49:13.720Z,100.00
2023-03-12T07:50:13.992Z,100.00
2023-03-12T07:51:12.893Z,100.00
2023-03-12T07:52:13.594Z,100.00
2023-03-12T07:53:13.471Z,100.00
2023-03-12T07:54:13.405Z,100.00
2023-03-12T07:55:13.639Z,100.00
2023-03-12T07:56:14.216Z,100.00
2023-03-12T07:57:13.801Z,100.00
2023-03-12T07:58:14.076Z,100.00
2023-03-12T07:59:13.747Z,100.00
2023-03-12T08:00:13.754Z,100.00
2023-03-12T08:01:13.870Z,100.00
2023-03-12T08:02:13.049Z,100.00
2023-03-12T08:03:13.322Z,100.00
2023-03-12T08:04:18.918Z,100.00
2023-03-12T08:05:13.236Z,100.00
2023-03-12T08:06:13.397Z,100.00
2023-03-12T08:07:13.440Z,100.00
2023-03-12T08:08:13.382Z,100.00
2023-03-12T08:09:13.652Z,100.00
2023-03-12T08:10:13.936Z,100.00
2023-03-12T08:11:13.484Z,100.00
2023-03-12T08:12:13.688Z,100.00
2023-03-12T08:13:13.722Z,100.00
2023-03-12T08:14:14.000Z,100.00
2023-03-12T08:15:13.001Z,100.00
2023-03-12T08:16:13.224Z,100.00
2023-03-12T08:17:13.164Z,100.00
2023-03-12T08:18:13.052Z,100.00
2023-03-12T08:19:13.129Z,100.00
2023-03-12T08:20:13.088Z,100.00
2023-03-12T08:21:15.923Z,100.00
2023-03-12T08:22:13.850Z,100.00
2023-03-12T08:23:14.139Z,100.00
2023-03-12T08:24:13.051Z,100.00
2023-03-12T08:25:13.036Z,100.00
2023-03-12T08:26:13.269Z,100.00
2023-03-12T08:27:13.713Z,100.00
2023-03-12T08:28:13.848Z,100.00
2023-03-12T08:29:13.854Z,100.00
2023-03-12T08:30:13.997Z,100.00
2023-03-12T08:31:13.076Z,100.00
2023-03-12T08:32:13.130Z,100.00
2023-03-12T08:33:13.135Z,100.00
2023-03-12T08:34:13.034Z,100.00
2023-03-12T08:35:19.098Z,100.00
2023-03-12T08:36:13.022Z,100.00
2023-03-12T08:37:12.995Z,100.00
2023-03-12T08:38:12.865Z,100.00
2023-03-12T08:39:13.805Z,100.00
2023-03-12T08:40:13.919Z,100.00
2023-03-12T08:41:12.926Z,100.00
2023-03-12T08:42:12.808Z,100.00
2023-03-12T08:43:13.900Z,100.00
2023-03-12T08:44:12.737Z,100.00
2023-03-12T08:45:13.788Z,100.00
2023-03-12T08:46:13.778Z,100.00
2023-03-12T08:47:13.943Z,100.00
2023-03-12T08:48:13.372Z,100.00
2023-03-12T08:49:13.432Z,100.00
2023-03-12T08:50:13.324Z,100.00
2023-03-12T08:51:16.398Z,100.00
2023-03-12T08:52:13.030Z,100.00
2023-03-12T08:53:13.096Z,100.00
2023-03-12T08:54:13.139Z,100.00
2023-03-12T08:55:13.200Z,100.00
2023-03-12T08:56:13.231Z,100.00
2023-03-12T08:57:13.323Z,100.00
2023-03-12T08:58:13.270Z,100.00
2023-03-12T08:59:13.194Z,100.00
2023-03-12T09:00:13.312Z,100.00
2023-03-12T09:01:13.297Z,100.00
2023-03-12T09:02:13.304Z,100.00
2023-03-12T09:03:13.316Z,100.00
2023-03-12T09:04:13.324Z,100.00
2023-03-12T09:05:18.352Z,100.00
2023-03-12T09:06:13.693Z,100.00
2023-03-12T09:07:13.929Z,100.00
2023-03-12T09:09:13.569Z,100.00
2023-03-12T09:10:13.485Z,100.00
2023-03-12T09:11:13.791Z,100.00
2023-03-12T09:12:13.976Z,100.00
2023-03-12T09:13:13.155Z,100.00
2023-03-12T09:14:57.496Z,100.00
2023-03-12T09:15:13.967Z,100.00
2023-03-12T09:16:13.339Z,100.00
2023-03-12T09:17:13.623Z,100.00
2023-03-12T09:18:13.600Z,100.00
2023-03-12T09:19:13.614Z,100.00
2023-03-12T09:20:14.614Z,100.00
2023-03-12T09:21:13.690Z,100.00
2023-03-12T09:22:13.773Z,100.00
2023-03-12T09:23:13.681Z,100.00
2023-03-12T09:24:13.564Z,100.00
2023-03-12T09:25:13.711Z,100.00
2023-03-12T09:26:13.610Z,100.00
2023-03-12T09:27:13.684Z,100.00
2023-03-12T09:28:16.542Z,100.00
2023-03-12T09:29:14.052Z,100.00
2023-03-12T09:30:13.201Z,100.00
2023-03-12T09:31:13.476Z,100.00
2023-03-12T09:32:14.154Z,100.00
2023-03-12T09:33:13.125Z,100.00
2023-03-12T09:34:13.267Z,100.00
2023-03-12T09:35:13.304Z,100.00
2023-03-12T09:36:13.246Z,100.00
2023-03-12T09:37:13.213Z,100.00
2023-03-12T09:38:13.172Z,100.00
2023-03-12T09:39:13.365Z,100.00
2023-03-12T09:40:13.335Z,100.00
2023-03-12T09:41:13.330Z,100.00
2023-03-12T09:42:13.232Z,100.00
2023-03-12T09:43:13.295Z,100.00
2023-03-12T09:44:13.368Z,100.00
2023-03-12T09:45:13.349Z,100.00
2023-03-12T09:46:13.275Z,100.00
2023-03-12T09:47:13.272Z,100.00
2023-03-12T09:48:13.325Z,100.00
2023-03-12T09:49:13.579Z,100.00
2023-03-12T09:50:13.536Z,100.00
2023-03-12T09:51:13.460Z,100.00
2023-03-12T09:52:13.848Z,100.00
2023-03-12T09:53:13.786Z,100.00
2023-03-12T09:54:13.806Z,100.00
2023-03-12T09:55:13.647Z,100.00
2023-03-12T09:56:13.683Z,100.00
2023-03-12T09:57:13.658Z,100.00
2023-03-12T09:58:13.465Z,100.00
2023-03-12T09:59:13.406Z,100.00
2023-03-12T10:00:13.269Z,100.00
2023-03-12T10:01:13.356Z,100.00
2023-03-12T10:02:13.272Z,100.00
2023-03-12T10:03:13.361Z,100.00
2023-03-12T10:04:13.605Z,100.00
2023-03-12T10:05:13.774Z,100.00
2023-03-12T10:06:13.966Z,100.00
2023-03-12T10:07:12.987Z,100.00
2023-03-12T10:08:24.000Z,100.00
2023-03-12T10:09:13.702Z,100.00
2023-03-12T10:10:13.678Z,100.00
2023-03-12T10:11:13.833Z,100.00
2023-03-12T10:12:13.803Z,100.00
2023-03-12T10:13:19.458Z,100.00
2023-03-12T10:14:23.050Z,100.00
2023-03-12T10:15:18.533Z,100.00
2023-03-12T10:16:13.628Z,100.00
2023-03-12T10:17:13.550Z,100.00
2023-03-12T10:18:13.786Z,100.00
2023-03-12T10:19:12.997Z,100.00
2023-03-12T10:20:13.130Z,100.00
2023-03-12T10:21:13.207Z,100.00
2023-03-12T10:22:13.139Z,100.00
2023-03-12T10:23:13.227Z,100.00
2023-03-12T10:24:13.160Z,100.00
2023-03-12T10:25:13.188Z,100.00
2023-03-12T10:26:13.151Z,100.00
2023-03-12T10:27:18.378Z,100.00
2023-03-12T10:29:13.532Z,100.00
2023-03-12T10:30:13.930Z,100.00
2023-03-12T10:31:13.350Z,100.00
2023-03-12T10:32:13.244Z,100.00
2023-03-12T10:33:13.514Z,100.00
2023-03-12T10:34:15.010Z,100.00
2023-03-12T10:35:13.004Z,100.00
2023-03-12T10:36:13.193Z,100.00
2023-03-12T10:37:13.157Z,100.00
2023-03-12T10:38:13.749Z,100.00
2023-03-12T10:39:13.740Z,100.00
2023-03-12T10:40:13.746Z,100.00
2023-03-12T10:41:13.721Z,100.00
2023-03-12T10:42:13.911Z,100.00
2023-03-12T10:43:13.253Z,100.00
2023-03-12T10:44:13.222Z,100.00
2023-03-12T10:45:13.586Z,100.00
2023-03-12T10:46:13.919Z,100.00
2023-03-12T10:47:13.170Z,100.00
2023-03-12T10:48:13.193Z,100.00
2023-03-12T10:49:18.600Z,100.00
2023-03-12T10:50:14.161Z,100.00
2023-03-12T10:51:13.676Z,100.00
2023-03-12T10:52:13.551Z,100.00
2023-03-12T10:53:13.880Z,100.00
2023-03-12T10:54:14.401Z,100.00
2023-03-12T10:55:13.450Z,100.00
2023-03-12T10:56:13.683Z,100.00
2023-03-12T10:57:13.548Z,100.00
2023-03-12T10:58:13.441Z,100.00
2023-03-12T10:59:14.650Z,100.00
2023-03-12T11:00:13.901Z,100.00
2023-03-12T11:01:13.115Z,100.00
2023-03-12T11:02:13.025Z,100.00
2023-03-12T11:03:13.647Z,100.00
2023-03-12T11:04:13.917Z,100.00
2023-03-12T11:05:12.861Z,100.00
2023-03-12T11:06:14.047Z,100.00
2023-03-12T11:07:13.061Z,100.00
2023-03-12T11:08:13.180Z,100.00
2023-03-12T11:09:17.044Z,100.00
2023-03-12T11:10:14.418Z,100.00
2023-03-12T11:11:14.133Z,100.00
2023-03-12T11:12:13.315Z,100.00
2023-03-12T11:13:13.264Z,100.00
2023-03-12T11:14:13.398Z,100.00
2023-03-12T11:15:13.502Z,100.00
2023-03-12T11:16:13.766Z,100.00
2023-03-12T11:17:13.904Z,100.00
2023-03-12T11:18:12.848Z,100.00
2023-03-12T11:19:13.948Z,100.00
2023-03-12T11:20:12.945Z,100.00
2023-03-12T11:21:13.316Z,100.00
2023-03-12T11:22:18.746Z,100.00
2023-03-12T11:23:13.669Z,100.00
2023-03-12T11:24:13.598Z,100.00
2023-03-12T11:25:13.669Z,100.00
2023-03-12T11:26:14.083Z,100.00
2023-03-12T11:27:13.453Z,100.00
2023-03-12T11:28:13.493Z,100.00
2023-03-12T11:29:13.744Z,100.00
2023-03-12T11:30:14.006Z,100.00
2023-03-12T11:31:13.055Z,100.00
2023-03-12T11:32:13.110Z,100.00
2023-03-12T11:33:13.499Z,100.00
2023-03-12T11:34:13.445Z,100.00
2023-03-12T11:35:13.694Z,100.00
2023-03-12T11:36:13.602Z,100.00
2023-03-12T11:37:13.915Z,100.00
2023-03-12T11:38:12.941Z,100.00
2023-03-12T11:39:13.604Z,100.00
2023-03-12T11:40:13.755Z,100.00
2023-03-12T11:41:14.130Z,100.00
2023-03-12T11:42:13.245Z,100.00
2023-03-12T11:43:13.464Z,100.00
2023-03-12T11:44:13.649Z,100.00
2023-03-12T11:45:13.768Z,100.00
2023-03-12T11:46:13.723Z,100.00
2023-03-12T11:47:14.043Z,100.00
2023-03-12T11:48:13.214Z,100.00
2023-03-12T11:49:13.201Z,100.00
2023-03-12T11:50:13.316Z,100.00
2023-03-12T11:51:13.533Z,100.00
2023-03-12T11:52:13.782Z,100.00
2023-03-12T11:53:14.062Z,100.00
2023-03-12T11:54:13.311Z,100.00
2023-03-12T11:55:16.304Z,100.00
2023-03-12T11:56:13.457Z,100.00
2023-03-12T11:57:13.471Z,100.00
2023-03-12T11:58:13.566Z,100.00
2023-03-12T11:59:13.593Z,100.00
2023-03-12T12:00:13.766Z,100.00
2023-03-12T12:01:13.792Z,100.00
2023-03-12T12:02:13.777Z,100.00
2023-03-12T12:03:13.772Z,100.00
2023-03-12T12:04:13.664Z,100.00
2023-03-12T12:05:13.807Z,100.00
2023-03-12T12:06:13.685Z,100.00
2023-03-12T12:07:13.650Z,100.00
2023-03-12T12:08:14.001Z,100.00
2023-03-12T12:09:13.004Z,100.00
2023-03-12T12:10:13.309Z,100.00
2023-03-12T12:11:13.315Z,100.00
2023-03-12T12:12:13.740Z,100.00
2023-03-12T12:13:13.863Z,100.00
2023-03-12T12:14:13.934Z,100.00
2023-03-12T12:15:12.944Z,100.00
2023-03-12T12:16:12.997Z,100.00
2023-03-12T12:17:13.239Z,100.00
2023-03-12T12:18:13.445Z,100.00
2023-03-12T12:19:13.464Z,100.00
2023-03-12T12:20:13.634Z,100.00
2023-03-12T12:21:13.607Z,100.00
2023-03-12T12:22:14.145Z,100.00
2023-03-12T12:23:15.286Z,100.00
2023-03-12T12:24:14.489Z,100.00
2023-03-12T12:25:13.668Z,100.00
2023-03-12T12:26:13.833Z,100.00
2023-03-12T12:27:14.147Z,100.00
2023-03-12T12:28:13.067Z,100.00
2023-03-12T12:29:13.218Z,100.00
2023-03-12T12:30:13.238Z,100.00
2023-03-12T12:32:13.536Z,100.00
2023-03-12T12:33:13.734Z,100.00
2023-03-12T12:34:13.800Z,100.00
2023-03-12T12:35:14.218Z,100.00
2023-03-12T12:36:13.235Z,100.00
2023-03-12T12:37:13.243Z,100.00
2023-03-12T12:38:13.328Z,100.00
2023-03-12T12:39:13.500Z,100.00
2023-03-12T12:40:13.388Z,100.00
2023-03-12T12:41:13.567Z,100.00